Time;durP1;ratioP1;P1;durP2;ratioP2;P2;SDS_P1;SDS_P2;PMS_P1;PMS_P2;Temp;Humidity;BMP_temperature;BMP_pressure;BME280_temperature;BME280_humidity;BME280_pressure;Samples;Min_cycle;Max_cycle;Signal;HPM_P1;HPM_P2
2022/04/03 00:00:45;;;;;;;23.30;15.97;;;;;;;-1.97;100.00;95541.38;6099622;23;20163;-80
2022/04/03 00:03:11;;;;;;;23.63;16.90;;;;;;;-1.95;100.00;95543.84;6099086;23;20162;-81
2022/04/03 00:05:42;;;;;;;20.87;16.20;;;;;;;-1.95;100.00;95541.31;6099770;23;20650;-81
2022/04/03 00:08:08;;;;;;;24.00;15.40;;;;;;;-1.95;100.00;95541.31;6076677;23;20157;-80
2022/04/03 00:10:34;;;;;;;24.13;17.60;;;;;;;-2.05;100.00;95543.47;6075987;23;20167;-81
2022/04/03 00:13:00;;;;;;;23.80;16.30;;;;;;;-1.91;100.00;95545.38;6075101;23;20156;-80
2022/04/03 00:15:25;;;;;;;23.30;16.57;;;;;;;-1.89;100.00;95541.84;6099120;23;20183;-80
2022/04/03 00:17:50;;;;;;;27.47;17.87;;;;;;;-1.93;100.00;95540.38;6075477;23;20160;-81
2022/04/03 00:20:16;;;;;;;21.77;15.87;;;;;;;-1.87;100.00;95540.06;6099415;23;20180;-80
2022/04/03 00:22:43;;;;;;;21.53;15.83;;;;;;;-1.89;100.00;95543.56;6074914;23;20172;-81
2022/04/03 00:25:11;;;;;;;22.67;16.37;;;;;;;-1.87;100.00;95551.97;6098816;23;20189;-81
2022/04/03 00:27:37;;;;;;;26.87;16.00;;;;;;;-1.84;100.00;95551.84;6075867;23;20169;-80
2022/04/03 00:30:02;;;;;;;20.90;15.60;;;;;;;-1.92;100.00;95546.28;6075231;23;20160;-81
2022/04/03 00:32:27;;;;;;;27.43;16.67;;;;;;;-1.89;100.00;95553.75;6074904;23;20196;-81
2022/04/03 00:34:53;;;;;;;21.07;16.50;;;;;;;-1.87;100.00;95551.97;6099209;23;20162;-80
2022/04/03 00:37:18;;;;;;;22.80;16.27;;;;;;;-1.87;100.00;95542.59;6099527;23;20173;-81
2022/04/03 00:39:43;;;;;;;23.97;16.23;;;;;;;-1.84;100.00;95550.09;6098969;23;20186;-80
2022/04/03 00:42:09;;;;;;;23.30;16.50;;;;;;;-1.85;100.00;95553.56;6098297;23;20160;-80
2022/04/03 00:44:37;;;;;;;22.13;16.27;;;;;;;-1.89;100.00;95552.03;6074890;23;20608;-80
2022/04/03 00:47:03;;;;;;;23.93;16.90;;;;;;;-1.90;100.00;95550.41;6074947;23;20639;-80
2022/04/03 00:49:29;;;;;;;26.93;17.57;;;;;;;-1.91;100.00;95551.28;6099432;23;20152;-79
2022/04/03 00:51:55;;;;;;;22.20;16.57;;;;;;;-1.82;100.00;95555.13;6074139;23;20172;-81
2022/04/03 00:54:20;;;;;;;25.23;18.13;;;;;;;-1.83;100.00;95550.94;6074888;23;20235;-81
2022/04/03 00:56:45;;;;;;;24.07;17.27;;;;;;;-1.84;100.00;95552.66;6098918;23;20182;-80
2022/04/03 00:59:12;;;;;;;24.30;17.53;;;;;;;-1.85;100.00;95552.72;6074821;23;20192;-82
2022/04/03 01:01:39;;;;;;;23.57;16.67;;;;;;;-1.83;100.00;95548.38;6073975;23;20243;-80
2022/04/03 01:04:06;;;;;;;24.43;18.23;;;;;;;-1.87;100.00;95555.31;6098959;23;20688;-80
2022/04/03 01:06:31;;;;;;;24.13;17.00;;;;;;;-2.01;100.00;95542.44;6075209;23;20184;-80
2022/04/03 01:08:56;;;;;;;25.20;18.10;;;;;;;-2.03;100.00;95554.44;6074789;23;20241;-81
2022/04/03 01:11:22;;;;;;;23.13;16.87;;;;;;;-2.16;100.00;95555.88;6097917;23;20648;-81
2022/04/03 01:13:49;;;;;;;26.33;17.47;;;;;;;-2.06;100.00;95555.38;6099095;23;20168;-79
2022/04/03 01:16:15;;;;;;;23.03;16.87;;;;;;;-1.98;100.00;95556.75;6074541;23;20176;-80
2022/04/03 01:18:40;;;;;;;25.47;16.73;;;;;;;-1.95;100.00;95559.13;6074581;23;20232;-81
2022/04/03 01:21:06;;;;;;;21.97;15.57;;;;;;;-1.94;100.00;95559.09;6074256;23;20167;-80
2022/04/03 01:23:31;;;;;;;24.43;16.60;;;;;;;-1.78;100.00;95557.44;6074387;23;20156;-81
2022/04/03 01:25:57;;;;;;;25.87;15.97;;;;;;;-1.83;100.00;95556.84;6074456;23;20264;-82
2022/04/03 01:28:25;;;;;;;22.80;15.40;;;;;;;-1.89;100.00;95554.59;6074690;23;20158;-81
2022/04/03 01:30:50;;;;;;;26.17;16.67;;;;;;;-1.86;100.00;95561.25;6074848;23;20171;-81
2022/04/03 01:33:16;;;;;;;23.80;16.73;;;;;;;-1.88;100.00;95557.94;6074361;23;20484;-81
2022/04/03 01:35:42;;;;;;;29.23;17.60;;;;;;;-1.87;100.00;95557.88;6099094;23;20511;-81
2022/04/03 01:38:07;;;;;;;23.50;15.57;;;;;;;-1.82;100.00;95560.22;6075797;23;20169;-81
2022/04/03 01:40:35;;;;;;;22.93;16.93;;;;;;;-1.89;100.00;95567.31;6098928;23;20190;-81
2022/04/03 01:43:02;;;;;;;26.20;17.27;;;;;;;-1.89;100.00;95561.41;6074551;23;20226;-81
2022/04/03 01:45:27;;;;;;;22.87;16.50;;;;;;;-1.88;100.00;95560.50;6099045;23;20181;-81
2022/04/03 01:47:53;;;;;;;22.90;16.97;;;;;;;-1.88;100.00;95557.94;6074942;23;20169;-80
2022/04/03 01:50:18;;;;;;;24.50;17.33;;;;;;;-1.85;100.00;95555.28;6099365;23;20153;-81
2022/04/03 01:52:43;;;;;;;26.57;17.57;;;;;;;-1.94;100.00;95555.69;6098343;23;20476;-80
2022/04/03 01:55:09;;;;;;;25.50;16.30;;;;;;;-1.77;100.00;95559.13;6099440;23;20490;-80
2022/04/03 01:57:34;;;;;;;26.13;18.00;;;;;;;-1.82;100.00;95558.50;6074910;23;20169;-82
2022/04/03 01:59:59;;;;;;;26.87;17.63;;;;;;;-1.88;100.00;95555.41;6074742;23;20198;-79
2022/04/03 02:02:24;;;;;;;25.93;18.37;;;;;;;-1.82;100.00;95553.41;6097903;23;20162;-81
2022/04/03 02:04:50;;;;;;;28.10;18.40;;;;;;;-1.80;100.00;95555.88;6074566;23;20158;-80
2022/04/03 02:07:15;;;;;;;24.47;18.00;;;;;;;-1.94;100.00;95558.22;6074447;23;20182;-82
2022/04/03 02:09:40;;;;;;;22.90;16.70;;;;;;;-2.02;100.00;95556.06;6099316;23;20169;-82
2022/04/03 02:12:06;;;;;;;26.63;16.53;;;;;;;-2.00;100.00;95557.63;6074018;23;20175;-81
2022/04/03 02:14:31;;;;;;;26.93;17.40;;;;;;;-2.10;100.00;95558.13;6098996;23;20176;-81
2022/04/03 02:16:57;;;;;;;26.40;17.40;;;;;;;-2.12;100.00;95562.44;6143332;23;20267;-80
2022/04/03 02:19:23;;;;;;;25.17;17.90;;;;;;;-2.16;100.00;95559.25;6151386;23;20259;-82
2022/04/03 02:21:49;;;;;;;27.50;18.50;;;;;;;-2.08;100.00;95569.88;6125482;23;20153;-81
2022/04/03 02:24:14;;;;;;;28.87;17.07;;;;;;;-2.11;100.00;95561.59;6098736;23;20183;-82
2022/04/03 02:26:40;;;;;;;29.40;18.73;;;;;;;-2.01;100.00;95561.09;6104105;23;20182;-80
2022/04/03 02:29:05;;;;;;;22.00;16.50;;;;;;;-1.98;100.00;95562.66;6079727;23;20185;-83
2022/04/03 02:31:30;;;;;;;23.40;17.53;;;;;;;-2.04;100.00;95561.19;6103010;23;20601;-81
2022/04/03 02:33:56;;;;;;;28.80;18.27;;;;;;;-2.09;100.00;95565.69;6079848;23;20210;-80
2022/04/03 02:36:21;;;;;;;25.57;17.17;;;;;;;-2.08;100.00;95569.06;6102367;23;20178;-81
2022/04/03 02:38:47;;;;;;;25.17;16.63;;;;;;;-2.13;100.00;95565.91;6079464;23;20502;-82
2022/04/03 02:41:12;;;;;;;23.83;17.07;;;;;;;-2.08;100.00;95566.53;6103965;23;20162;-81
2022/04/03 02:43:37;;;;;;;24.70;18.30;;;;;;;-2.09;100.00;95568.25;6080264;23;20161;-81
2022/04/03 02:46:03;;;;;;;22.97;17.17;;;;;;;-2.11;100.00;95572.59;6104407;23;20250;-81
2022/04/03 02:48:28;;;;;;;27.03;17.70;;;;;;;-2.00;100.00;95569.53;6104090;23;20233;-81
2022/04/03 02:50:53;;;;;;;23.10;16.40;;;;;;;-1.96;100.00;95570.22;6104057;23;20166;-80
2022/04/03 02:53:19;;;;;;;26.50;17.63;;;;;;;-1.98;100.00;95579.66;6103418;23;20162;-82
2022/04/03 02:55:44;;;;;;;25.53;17.47;;;;;;;-2.07;100.00;95573.25;6079931;23;20191;-81
2022/04/03 02:58:09;;;;;;;27.13;18.00;;;;;;;-1.93;100.00;95572.63;6104302;23;20624;-81
2022/04/03 03:00:35;;;;;;;23.63;17.00;;;;;;;-1.96;100.00;95573.56;6103931;23;20185;-83
2022/04/03 03:03:01;;;;;;;26.77;18.27;;;;;;;-1.96;100.00;95576.13;6103739;23;20218;-83
2022/04/03 03:05:26;;;;;;;27.50;18.43;;;;;;;-2.01;100.00;95580.63;6079461;23;20268;-81
2022/04/03 03:07:52;;;;;;;24.80;16.97;;;;;;;-2.03;100.00;95572.25;6103821;23;20272;-83
2022/04/03 03:10:19;;;;;;;27.80;17.93;;;;;;;-2.03;100.00;95573.06;6104164;23;20225;-83
2022/04/03 03:12:46;;;;;;;24.83;17.10;;;;;;;-2.03;100.00;95569.69;6079682;23;20174;-83
2022/04/03 03:15:12;;;;;;;24.93;17.93;;;;;;;-2.11;100.00;95579.41;6079777;23;20220;-84
2022/04/03 03:17:38;;;;;;;27.17;17.47;;;;;;;-2.12;100.00;95567.53;6103048;23;20154;-84
2022/04/03 03:20:05;;;;;;;27.43;17.17;;;;;;;-2.10;100.00;95570.88;6102784;23;20279;-83
2022/04/03 03:22:31;;;;;;;26.03;17.80;;;;;;;-2.05;100.00;95574.00;6076628;23;20161;-83
2022/04/03 03:24:56;;;;;;;26.80;17.47;;;;;;;-2.06;100.00;95570.63;6102903;23;20224;-81
2022/04/03 03:27:21;;;;;;;24.53;16.67;;;;;;;-2.11;100.00;95572.59;6103234;23;20157;-83
2022/04/03 03:29:47;;;;;;;24.60;18.20;;;;;;;-2.14;100.00;95575.25;6078241;23;20174;-81
2022/04/03 03:32:12;;;;;;;26.03;18.13;;;;;;;-2.17;100.00;95575.41;6078186;23;20686;-83
2022/04/03 03:34:37;;;;;;;23.83;17.47;;;;;;;-2.16;100.00;95577.03;6078496;23;20633;-83
2022/04/03 03:37:03;;;;;;;24.57;17.17;;;;;;;-2.14;100.00;95575.25;6101897;23;20643;-82
2022/04/03 03:39:28;;;;;;;26.63;17.33;;;;;;;-2.15;100.00;95575.31;6078410;23;20184;-83
2022/04/03 03:41:55;;;;;;;26.60;17.63;;;;;;;-2.10;100.00;95583.59;6101804;23;20620;-82
2022/04/03 03:44:23;;;;;;;27.13;18.07;;;;;;;-2.15;100.00;95578.69;6078928;23;20166;-83
2022/04/03 03:46:48;;;;;;;27.40;18.53;;;;;;;-2.11;100.00;95582.75;6102873;23;20230;-82
2022/04/03 03:49:14;;;;;;;27.13;17.77;;;;;;;-2.10;100.00;95586.94;6078355;23;20158;-83
2022/04/03 03:51:40;;;;;;;24.73;16.67;;;;;;;-2.13;100.00;95583.72;6102252;23;20157;-81
2022/04/03 03:54:05;;;;;;;23.80;17.23;;;;;;;-2.11;100.00;95590.41;6079092;23;20604;-81
2022/04/03 03:56:31;;;;;;;27.83;17.50;;;;;;;-2.10;100.00;95599.69;6078211;23;20185;-83
2022/04/03 03:58:56;;;;;;;27.87;18.60;;;;;;;-2.04;100.00;95596.81;6102558;23;20697;-82
2022/04/03 04:01:22;;;;;;;31.03;21.70;;;;;;;-2.07;100.00;95593.63;6101849;23;20180;-82
2022/04/03 04:03:47;;;;;;;31.47;22.23;;;;;;;-2.07;100.00;95588.53;6079065;23;20167;-82
2022/04/03 04:06:13;;;;;;;31.43;21.77;;;;;;;-2.07;100.00;95588.53;6102556;23;20205;-83
2022/04/03 04:08:38;;;;;;;29.97;22.17;;;;;;;-2.05;100.00;95596.91;6078147;23;20497;-82
2022/04/03 04:11:03;;;;;;;29.53;19.20;;;;;;;-2.08;100.00;95590.25;6101255;23;20169;-81
2022/04/03 04:13:29;;;;;;;32.03;19.13;;;;;;;-2.05;100.00;95599.44;6101197;23;20619;-82
2022/04/03 04:15:54;;;;;;;26.40;17.60;;;;;;;-2.06;100.00;95598.63;6077825;23;20178;-82
2022/04/03 04:18:19;;;;;;;28.23;17.10;;;;;;;-2.04;100.00;95601.91;6101405;23;20173;-83
2022/04/03 04:20:45;;;;;;;23.90;16.60;;;;;;;-2.09;100.00;95606.41;6101810;23;20153;-83
2022/04/03 04:23:10;;;;;;;24.83;17.40;;;;;;;-2.11;100.00;95613.28;6077185;23;20166;-82
2022/04/03 04:25:35;;;;;;;26.53;18.67;;;;;;;-2.12;100.00;95609.09;6102814;23;20248;-81
2022/04/03 04:28:01;;;;;;;27.17;18.13;;;;;;;-2.12;100.00;95619.28;6078073;23;20165;-82
2022/04/03 04:30:27;;;;;;;25.73;18.27;;;;;;;-2.10;100.00;95616.66;6077817;23;20177;-82
2022/04/03 04:32:52;;;;;;;28.40;18.23;;;;;;;-2.09;100.00;95614.03;6077067;23;20161;-81
2022/04/03 04:35:18;;;;;;;34.03;21.13;;;;;;;-2.11;100.00;95615.00;6101635;23;20177;-82
2022/04/03 04:37:43;;;;;;;30.13;20.73;;;;;;;-2.13;100.00;95612.50;6101743;23;20769;-82
2022/04/03 04:40:10;;;;;;;25.93;18.77;;;;;;;-2.08;100.00;95623.31;6077603;23;20270;-82
2022/04/03 04:42:36;;;;;;;30.40;19.40;;;;;;;-2.15;100.00;95619.41;6076500;23;20244;-81
2022/04/03 04:45:02;;;;;;;32.33;20.00;;;;;;;-2.18;100.00;95634.00;6126737;23;20479;-83
2022/04/03 04:47:28;;;;;;;25.00;17.27;;;;;;;-2.19;100.00;95625.53;6077680;23;20161;-82
2022/04/03 04:49:53;;;;;;;23.50;16.00;;;;;;;-2.14;100.00;95630.41;6077656;23;20215;-83
2022/04/03 04:52:18;;;;;;;23.70;16.47;;;;;;;-2.13;100.00;95622.69;6076294;23;20167;-82
2022/04/03 04:54:43;;;;;;;21.40;15.90;;;;;;;-2.21;100.00;95623.94;6077168;23;20171;-81
2022/04/03 04:57:09;;;;;;;22.27;15.07;;;;;;;-2.38;100.00;95637.44;6101292;23;20170;-82
2022/04/03 04:59:34;;;;;;;24.50;16.70;;;;;;;-2.38;100.00;95643.34;6076414;23;20649;-82
2022/04/03 05:01:59;;;;;;;20.90;15.50;;;;;;;-2.49;100.00;95639.59;6100924;23;20204;-82
2022/04/03 05:04:25;;;;;;;23.10;15.60;;;;;;;-2.61;100.00;95639.25;6101502;23;20152;-81
2022/04/03 05:06:51;;;;;;;23.87;16.37;;;;;;;-2.46;100.00;95634.41;6077070;23;20240;-81
2022/04/03 05:09:18;;;;;;;23.83;17.13;;;;;;;-2.30;100.00;95642.97;6077222;23;20162;-80
2022/04/03 05:11:45;;;;;;;24.53;17.73;;;;;;;-2.37;100.00;95639.06;6099384;23;20160;-82
2022/04/03 05:14:11;;;;;;;28.07;18.60;;;;;;;-2.53;100.00;95646.53;6077446;23;20255;-81
2022/04/03 05:16:36;;;;;;;27.13;17.37;;;;;;;-2.28;100.00;95651.38;6101337;23;20703;-80
2022/04/03 05:19:02;;;;;;;25.03;16.83;;;;;;;-2.30;100.00;95648.91;6101383;23;20189;-82
2022/04/03 05:21:28;;;;;;;21.00;15.40;;;;;;;-2.18;100.00;95654.34;6100918;23;20169;-82
2022/04/03 05:23:53;;;;;;;23.97;15.80;;;;;;;-2.21;100.00;95650.19;6076694;23;20160;-83
2022/04/03 05:26:19;;;;;;;22.20;15.33;;;;;;;-2.29;100.00;95659.91;6076898;23;20495;-81
2022/04/03 05:28:44;;;;;;;24.80;16.23;;;;;;;-2.13;100.00;95662.59;6076770;23;20242;-81
2022/04/03 05:31:09;;;;;;;21.63;16.07;;;;;;;-2.24;100.00;95659.69;6076724;23;20617;-82
2022/04/03 05:33:35;;;;;;;25.60;16.60;;;;;;;-2.16;100.00;95666.09;6077144;23;20160;-82
2022/04/03 05:36:00;;;;;;;23.07;14.13;;;;;;;-2.07;100.00;95663.13;6101114;23;20486;-81
2022/04/03 05:38:26;;;;;;;22.77;14.70;;;;;;;-2.23;100.00;95662.16;6100785;23;20163;-82
2022/04/03 05:40:51;;;;;;;23.13;14.17;;;;;;;-2.05;100.00;95661.34;6101243;23;20619;-80
2022/04/03 05:43:16;;;;;;;20.43;14.30;;;;;;;-2.12;100.00;95662.53;6099862;23;20617;-83
2022/04/03 05:45:42;;;;;;;19.13;13.10;;;;;;;-1.94;100.00;95662.56;6077324;23;20181;-80
2022/04/03 05:48:08;;;;;;;18.60;12.97;;;;;;;-1.84;100.00;95667.22;6101544;23;20185;-82
2022/04/03 05:50:35;;;;;;;20.00;12.77;;;;;;;-1.74;100.00;95675.25;6101424;23;20236;-82
2022/04/03 05:53:00;;;;;;;19.20;12.53;;;;;;;-1.66;99.44;95672.34;6100697;23;20268;-80
2022/04/03 05:55:26;;;;;;;19.90;12.30;;;;;;;-1.59;98.78;95677.09;6101210;23;20575;-82
2022/04/03 05:57:52;;;;;;;21.13;13.60;;;;;;;-1.58;98.45;95672.81;6076530;23;20599;-82
2022/04/03 06:00:20;;;;;;;19.53;13.50;;;;;;;-1.61;97.92;95686.50;6100509;23;20216;-82
2022/04/03 06:02:47;;;;;;;19.87;13.43;;;;;;;-1.84;98.23;95685.03;6076413;23;20169;-82
2022/04/03 06:05:12;;;;;;;20.80;12.90;;;;;;;-1.88;98.65;95693.69;6076398;23;20161;-82
2022/04/03 06:07:37;;;;;;;20.50;13.50;;;;;;;-1.56;98.64;95697.31;6076566;23;20499;-82
2022/04/03 06:10:03;;;;;;;21.27;13.27;;;;;;;-1.35;98.04;95692.94;6102208;23;20154;-81
2022/04/03 06:12:29;;;;;;;19.67;13.00;;;;;;;-1.29;96.42;95700.28;6078744;23;20220;-81
2022/04/03 06:14:54;;;;;;;18.63;12.90;;;;;;;-1.20;95.99;95696.50;6079145;23;20578;-79
2022/04/03 06:17:19;;;;;;;18.10;12.43;;;;;;;-1.05;94.68;95698.31;6104336;23;20165;-82
2022/04/03 06:19:45;;;;;;;16.33;11.40;;;;;;;-1.34;93.69;95703.94;6102185;23;20691;-81
2022/04/03 06:22:10;;;;;;;19.93;12.50;;;;;;;-1.47;95.38;95699.44;6126087;23;20153;-80
2022/04/03 06:24:35;;;;;;;18.90;11.83;;;;;;;-1.32;95.31;95703.00;6078308;23;20166;-81
2022/04/03 06:27:01;;;;;;;19.83;12.10;;;;;;;-1.59;95.31;95716.97;6080311;23;20235;-81
2022/04/03 06:29:26;;;;;;;18.37;12.57;;;;;;;-1.60;97.11;95712.78;6102642;23;20268;-82
2022/04/03 06:31:51;;;;;;;20.43;13.13;;;;;;;-1.66;97.32;95719.00;6078546;23;20192;-81
2022/04/03 06:34:17;;;;;;;21.40;13.47;;;;;;;-1.52;96.93;95715.81;6080822;23;20157;-81
2022/04/03 06:36:42;;;;;;;18.93;11.63;;;;;;;-1.32;96.33;95713.19;6104135;23;20589;-83
2022/04/03 06:39:12;;;;;;;15.57;11.77;;;;;;;-1.16;94.60;95721.72;6081172;23;20201;-82
2022/04/03 06:41:37;;;;;;;18.07;12.47;;;;;;;-0.99;93.97;95720.09;6101858;23;20219;-82
2022/04/03 06:44:03;;;;;;;14.97;11.33;;;;;;;-1.10;94.07;95715.53;6105303;23;20535;-80
2022/04/03 06:46:28;;;;;;;17.83;11.93;;;;;;;-0.55;93.04;95717.94;6103977;23;20182;-83
2022/04/03 06:48:54;;;;;;;17.00;12.67;;;;;;;-0.40;91.62;95722.28;6081591;23;20179;-83
2022/04/03 06:51:19;;;;;;;13.90;9.87;;;;;;;0.00;88.66;95727.94;6079821;23;20167;-83
2022/04/03 06:53:44;;;;;;;14.57;10.37;;;;;;;-0.02;87.45;95732.25;6105239;23;20202;-83
2022/04/03 06:56:10;;;;;;;17.20;11.97;;;;;;;0.12;85.39;95736.66;6103499;23;20182;-81
2022/04/03 06:58:36;;;;;;;15.07;9.83;;;;;;;-0.08;86.37;95732.59;6075089;23;20158;-80
2022/04/03 07:01:02;;;;;;;14.47;10.07;;;;;;;0.14;86.11;95743.34;6103487;23;20155;-81
2022/04/03 07:03:28;;;;;;;14.57;9.67;;;;;;;0.49;85.96;95740.66;6079820;23;20166;-81
2022/04/03 07:05:53;;;;;;;13.73;10.17;;;;;;;0.72;82.61;95747.09;6129090;23;20175;-82
2022/04/03 07:08:19;;;;;;;13.70;9.70;;;;;;;1.13;81.94;95742.25;6117214;23;20144;-79
2022/04/03 07:10:44;;;;;;;11.37;10.00;;;;;;;0.96;80.53;95745.75;6119339;23;20174;-82
2022/04/03 07:13:10;;;;;;;14.23;7.83;;;;;;;1.19;78.03;95747.03;6084551;23;20193;-82
2022/04/03 07:15:36;;;;;;;10.60;8.80;;;;;;;1.70;76.94;95742.44;6108728;23;20179;-82
2022/04/03 07:18:01;;;;;;;9.90;8.37;;;;;;;1.49;74.69;95744.47;6109168;23;20163;-81
2022/04/03 07:20:26;;;;;;;12.27;7.63;;;;;;;2.10;75.00;95746.00;6132524;23;20702;-83
2022/04/03 07:22:52;;;;;;;11.57;7.73;;;;;;;2.15;73.73;95758.56;6107429;23;20238;-82
2022/04/03 07:25:17;;;;;;;14.40;8.17;;;;;;;1.69;77.31;95756.13;6108601;23;20654;-82
2022/04/03 07:27:42;;;;;;;10.83;8.70;;;;;;;1.06;79.59;95756.28;6134343;23;20155;-83
2022/04/03 07:30:09;;;;;;;12.93;7.80;;;;;;;1.39;77.93;95761.25;6107962;23;20176;-81
2022/04/03 07:32:35;;;;;;;9.03;6.87;;;;;;;1.17;76.96;95764.22;6107698;23;20156;-83
2022/04/03 07:35:00;;;;;;;9.87;7.20;;;;;;;2.15;76.12;95773.94;6132133;23;20462;-83
2022/04/03 07:37:25;;;;;;;11.80;8.37;;;;;;;2.14;75.42;95774.84;6108689;23;20184;-83
2022/04/03 07:39:51;;;;;;;12.50;7.50;;;;;;;1.86;74.86;95776.47;6107511;23;20250;-83
2022/04/03 07:42:16;;;;;;;10.57;7.43;;;;;;;2.18;75.42;95774.56;6104836;23;20156;-83
2022/04/03 07:44:42;;;;;;;11.47;8.00;;;;;;;1.86;74.41;95781.59;6108625;23;20235;-83
2022/04/03 07:47:07;;;;;;;8.67;6.93;;;;;;;2.14;72.41;95785.94;6109706;23;20288;-83
2022/04/03 07:49:32;;;;;;;10.87;7.60;;;;;;;2.30;72.67;95793.53;6134999;23;20587;-84
2022/04/03 07:51:58;;;;;;;11.40;7.80;;;;;;;2.17;75.22;95784.91;6109390;23;20608;-83
2022/04/03 07:54:23;;;;;;;12.17;9.73;;;;;;;1.68;76.21;95785.22;6109133;23;20163;-85
2022/04/03 07:56:48;;;;;;;10.73;7.37;;;;;;;1.60;76.21;95787.38;6104021;23;20184;-79
2022/04/03 07:59:14;;;;;;;10.90;7.80;;;;;;;1.65;77.29;95790.50;6134664;23;20175;-80
2022/04/03 08:01:39;;;;;;;10.07;8.17;;;;;;;1.95;74.53;95793.88;6137593;23;20152;-79
2022/04/03 08:04:04;;;;;;;10.30;7.63;;;;;;;1.16;78.50;95800.94;6137283;23;20156;-80
2022/04/03 08:06:30;;;;;;;9.40;7.80;;;;;;;0.96;78.75;95801.19;6137456;23;20214;-81
2022/04/03 08:08:55;;;;;;;10.33;7.80;;;;;;;1.35;78.94;95803.28;6111899;23;20203;-81
2022/04/03 08:11:20;;;;;;;11.30;8.37;;;;;;;0.38;82.59;95805.09;6111412;23;20164;-81
2022/04/03 08:13:47;;;;;;;12.13;8.60;;;;;;;0.46;80.72;95804.72;6137408;23;20238;-82
2022/04/03 08:16:13;;;;;;;18.67;10.60;;;;;;;1.33;78.53;95800.81;6112962;23;20186;-80
2022/04/03 08:18:38;;;;;;;10.90;8.23;;;;;;;0.65;79.29;95802.84;6088936;23;20168;-81
2022/04/03 08:21:03;;;;;;;9.53;7.87;;;;;;;0.81;78.62;95808.78;6113375;23;20612;-81
2022/04/03 08:23:29;;;;;;;10.20;6.70;;;;;;;0.93;79.51;95809.03;6131343;23;20155;-82
2022/04/03 08:25:55;;;;;;;9.63;8.00;;;;;;;2.19;75.99;95811.25;6105945;23;20202;-81
2022/04/03 08:28:22;;;;;;;9.73;6.30;;;;;;;1.90;73.31;95813.78;6081806;23;20225;-82
2022/04/03 08:30:47;;;;;;;7.77;6.30;;;;;;;2.11;71.54;95819.38;6103594;23;20640;-82
2022/04/03 08:33:12;;;;;;;8.03;6.47;;;;;;;2.58;71.64;95822.63;6126415;23;20159;-82
2022/04/03 08:35:40;;;;;;;10.63;7.23;;;;;;;2.92;69.63;95824.81;6097394;23;20195;-80
2022/04/03 08:38:06;;;;;;;13.13;9.10;;;;;;;2.47;71.83;95826.66;6123747;23;20144;-82
2022/04/03 08:40:33;;;;;;;9.00;7.03;;;;;;;1.65;73.54;95822.03;6100123;23;20179;-82
2022/04/03 08:42:58;;;;;;;9.57;6.20;;;;;;;1.82;72.76;95822.81;6099393;23;20176;-80
2022/04/03 08:45:24;;;;;;;8.73;6.77;;;;;;;1.64;73.54;95824.69;6099499;23;20203;-82
2022/04/03 08:47:53;;;;;;;7.53;6.17;;;;;;;1.36;74.31;95831.34;6098561;23;20242;-83
2022/04/03 08:50:24;;;;;;;7.60;6.00;;;;;;;1.51;73.28;95831.44;6122838;23;20183;-81
2022/04/03 08:52:52;;;;;;;8.23;6.03;;;;;;;1.83;71.23;95827.84;6073428;23;20331;-84
2022/04/03 08:55:18;;;;;;;8.50;6.77;;;;;;;2.62;69.62;95837.72;6073625;23;20189;-84
2022/04/03 08:57:44;;;;;;;7.33;5.70;;;;;;;2.68;68.65;95831.41;6075318;23;20163;-83
2022/04/03 09:00:10;;;;;;;9.10;6.67;;;;;;;2.69;68.38;95833.88;6099309;23;20239;-82
2022/04/03 09:02:36;;;;;;;7.13;5.83;;;;;;;2.98;66.70;95837.22;6097992;23;20167;-82
2022/04/03 09:05:01;;;;;;;9.90;6.77;;;;;;;3.45;65.40;95830.91;6099438;23;20160;-82
2022/04/03 09:07:27;;;;;;;7.50;5.63;;;;;;;4.01;64.20;95836.69;6125355;23;20179;-84
2022/04/03 09:10:07;;;;;;;6.00;5.30;;;;;;;4.28;61.02;95835.78;6099890;23;20595;-82
2022/04/03 09:12:32;;;;;;;6.63;5.47;;;;;;;4.24;62.28;95835.13;6097663;23;20148;-83
2022/04/03 09:14:58;;;;;;;6.63;5.37;;;;;;;3.76;61.11;95840.00;6098085;23;20239;-82
2022/04/03 09:17:38;;;;;;;6.13;5.20;;;;;;;4.94;58.92;95834.69;6073434;23;20207;-82
2022/04/03 09:20:06;;;;;;;6.23;4.60;;;;;;;4.35;58.44;95842.16;6123473;23;20186;-83
2022/04/03 09:22:33;;;;;;;6.37;4.73;;;;;;;4.07;60.60;95844.00;6097756;23;20658;-83
2022/04/03 09:24:58;;;;;;;5.67;5.07;;;;;;;4.12;62.13;95836.78;6075922;23;20242;-82
2022/04/03 09:27:24;;;;;;;5.17;4.63;;;;;;;3.35;63.93;95847.78;6125385;23;20203;-85
2022/04/03 09:30:05;;;;;;;6.57;4.67;;;;;;;3.68;61.79;95842.25;6078200;23;20170;-84
2022/04/03 09:32:30;;;;;;;6.07;4.57;;;;;;;4.49;59.66;95834.31;6102568;23;20160;-85
2022/04/03 09:34:57;;;;;;;6.57;4.77;;;;;;;5.51;58.33;95839.25;6102936;23;20234;-82
2022/04/03 09:37:23;;;;;;;4.80;4.30;;;;;;;5.23;55.96;95842.97;6076914;23;20164;-84
2022/04/03 09:39:48;;;;;;;6.10;4.90;;;;;;;5.76;56.20;95838.31;6102521;23;20280;-84
2022/04/03 09:42:15;;;;;;;6.37;4.87;;;;;;;5.79;55.67;95838.91;6101302;23;20273;-84
2022/04/03 09:44:42;;;;;;;6.43;5.07;;;;;;;4.79;56.81;95845.13;6101567;23;20222;-82
2022/04/03 09:47:32;;;;;;;8.37;5.33;;;;;;;4.01;58.71;95848.72;6076741;23;20183;-84
2022/04/03 09:50:05;;;;;;;7.40;5.33;;;;;;;4.26;60.36;95849.56;6080707;23;20161;-81
2022/04/03 09:52:46;;;;;;;5.93;4.63;;;;;;;4.75;61.14;95853.97;6103493;23;20163;-81
2022/04/03 09:55:23;;;;;;;5.57;4.83;;;;;;;3.82;62.56;95854.22;6104981;23;20161;-82
2022/04/03 09:58:04;;;;;;;9.30;6.73;;;;;;;4.28;62.12;95851.22;6079718;23;20304;-81
2022/04/03 10:00:30;;;;;;;7.70;6.70;;;;;;;4.89;59.30;95852.22;6104151;23;20195;-83
2022/04/03 10:03:00;;;;;;;6.37;5.10;;;;;;;4.92;57.20;95844.25;6079062;23;20155;-84
2022/04/03 10:05:30;;;;;;;10.27;7.43;;;;;;;4.00;60.84;95853.03;6103614;23;20180;-80
2022/04/03 10:08:00;;;;;;;11.43;7.93;;;;;;;3.13;64.68;95853.44;6079716;23;20614;-81
2022/04/03 10:10:27;;;;;;;6.07;5.00;;;;;;;3.52;61.91;95854.41;6103722;23;20149;-81
2022/04/03 10:12:53;;;;;;;7.23;5.20;;;;;;;3.23;61.42;95851.13;6079354;23;20157;-80
2022/04/03 10:15:19;;;;;;;6.03;4.80;;;;;;;2.90;62.26;95843.75;6127622;23;20230;-80
2022/04/03 10:17:44;;;;;;;5.10;4.50;;;;;;;3.80;58.49;95848.34;6104249;23;20545;-83
2022/04/03 10:20:10;;;;;;;7.83;4.50;;;;;;;4.00;58.34;95844.50;6103476;23;20199;-83
2022/04/03 10:22:36;;;;;;;6.53;4.30;;;;;;;4.14;58.56;95850.34;6101462;23;20192;-84
2022/04/03 10:25:04;;;;;;;5.40;4.33;;;;;;;5.22;52.88;95852.44;6103634;23;20230;-83
2022/04/03 10:27:31;;;;;;;5.43;4.13;;;;;;;5.89;52.57;95849.38;6103961;23;20164;-82
2022/04/03 10:29:57;;;;;;;5.40;4.30;;;;;;;5.28;56.36;95844.28;6104378;23;20606;-84
2022/04/03 10:32:27;;;;;;;5.07;4.57;;;;;;;5.48;57.11;95845.47;6101983;23;20238;-83
2022/04/03 10:34:56;;;;;;;6.83;4.30;;;;;;;6.00;55.19;95841.69;6105105;23;20165;-82
2022/04/03 10:37:36;;;;;;;7.43;4.57;;;;;;;5.69;52.55;95849.06;6104182;23;20159;-81
2022/04/03 10:40:07;;;;;;;5.87;5.27;;;;;;;6.30;51.42;95848.13;6080450;23;20227;-81
2022/04/03 10:42:33;;;;;;;5.63;4.83;;;;;;;6.31;52.12;95845.44;6102497;23;20140;-83
2022/04/03 10:45:11;;;;;;;5.90;5.10;;;;;;;4.86;57.63;95836.97;6102968;23;20178;-83
2022/04/03 10:47:36;;;;;;;5.47;4.07;;;;;;;4.48;54.78;95842.97;6103155;23;20166;-83
2022/04/03 10:50:03;;;;;;;4.37;3.97;;;;;;;3.99;59.53;95835.97;6103663;23;20234;-83
2022/04/03 10:52:38;;;;;;;9.80;5.73;;;;;;;3.48;55.53;95833.25;6104529;23;20163;-80
2022/04/03 10:55:16;;;;;;;9.27;6.10;;;;;;;3.20;58.72;95846.19;6132993;23;20473;-82
2022/04/03 10:57:51;;;;;;;19.63;10.77;;;;;;;2.63;63.03;95848.81;6103864;23;20671;-82
2022/04/03 11:00:16;;;;;;;27.47;14.97;;;;;;;1.99;65.82;95838.88;6127112;23;20172;-81
2022/04/03 11:02:52;;;;;;;14.30;9.33;;;;;;;2.07;65.29;95842.72;6101932;23;20189;-81
2022/04/03 11:05:20;;;;;;;8.00;6.50;;;;;;;2.16;65.68;95844.75;6124896;23;20186;-83
2022/04/03 11:07:46;;;;;;;7.47;5.57;;;;;;;1.99;67.48;95838.03;6100480;23;20251;-82
2022/04/03 11:10:11;;;;;;;5.97;5.33;;;;;;;1.52;69.71;95841.56;6101035;23;20188;-83
2022/04/03 11:12:43;;;;;;;7.17;5.50;;;;;;;1.75;70.27;95842.81;6100439;23;20168;-83
2022/04/03 11:15:13;;;;;;;7.37;5.40;;;;;;;1.63;70.70;95843.53;6076818;23;20199;-83
2022/04/03 11:17:51;;;;;;;10.07;6.57;;;;;;;1.17;71.75;95840.94;6102018;23;20194;-82